This is the latest recevied weather packets stored in our database for station/object EA1GGY-1. If no packets are shown the sender has not sent any weather packets the latest 10 day(s).
| Time | Temp. | Humidity | Pressure | Rain* | Wind** | Luminosity | Snow |
|---|---|---|---|---|---|---|---|
| 1778211500 | 10° C | 72% | 1004.5 hPa | - | - | - | - |
| 1778210900 | 10° C | 73% | 1004.6 hPa | - | - | - | - |
| 1778210298 | 9.44° C | 78% | 1004.8 hPa | - | - | - | - |
| 1778209697 | 10° C | 76% | 1004.9 hPa | - | - | - | - |
| 1778209096 | 10° C | 75% | 1005 hPa | - | - | - | - |
| 1778208502 | 10° C | 75% | 1005.1 hPa | - | - | - | - |
| 1778207895 | 9.44° C | 79% | 1005.2 hPa | - | - | - | - |
| 1778207294 | 10° C | 77% | 1005.2 hPa | - | - | - | - |
| 1778206693 | 9.44° C | 78% | 1005.3 hPa | - | - | - | - |
| 1778206093 | 10.56° C | 76% | 1005.4 hPa | - | - | - | - |
| 1778205492 | 10° C | 77% | 1005.3 hPa | - | - | - | - |
| 1778204891 | 10° C | 76% | 1005.5 hPa | - | - | - | - |
| 1778204290 | 10° C | 77% | 1005.7 hPa | - | - | - | - |
| 1778203689 | 10° C | 77% | 1005.9 hPa | - | - | - | - |
| 1778203089 | 10.56° C | 75% | 1005.9 hPa | - | - | - | - |
| 1778202488 | 10° C | 75% | 1005.9 hPa | - | - | - | - |
| 1778201887 | 10.56° C | 71% | 1005.9 hPa | - | - | - | - |
| 1778201286 | 10.56° C | 73% | 1006.1 hPa | - | - | - | - |
| 1778200685 | 10° C | 74% | 1006.2 hPa | - | - | - | - |
| 1778200085 | 10.56° C | 73% | 1006.2 hPa | - | - | - | - |
| 1778199484 | 10.56° C | 72% | 1006.1 hPa | - | - | - | - |
| 1778198883 | 11.67° C | 74% | 1006.2 hPa | - | - | - | - |
| 1778197800 | 11.11° C | 73% | 1006.3 hPa | - | - | - | - |
| 1778197197 | 10.56° C | 75% | 1006.3 hPa | - | - | - | - |
| 1778196597 | 10.56° C | 73% | 1006.3 hPa | - | - | - | - |
* Rain since midnight (hover to see other rain measurements)
** Current wind speed in m/s (hover to see current wind gust speed)